JJA501 RKJJ-RKPC
Flight info
| Callsign | JJA501 |
|---|---|
| Flight time | N/A |
| Altitude | 20000 |
| Route | LILVI1 DOTOL DOTOL2P |
| Aircraft | B738/M-SDE2E3FGHIRWXY/LB1 |
Departure
| Time | 2026-04-22 13:13 |
|---|---|
| Airport | Gwangju Airport (RKJJ) |
Arrival
| Time | N/A |
|---|---|
| Airport | Jeju International Airport (RKPC) |
| Time | Latitude | Longitude | Altitude | Speed | Heading |
|---|---|---|---|---|---|
| 2026-04-22 13:11 | 35.14034 | 126.81191 | 56 ft | 0 kts | 299° |
| 2026-04-22 13:11 | 35.14017 | 126.81187 | 57 ft | 10 kts | 174° |
| 2026-04-22 13:11 | 35.13928 | 126.81255 | 54 ft | 17 kts | 122° |
| 2026-04-22 13:11 | 35.13859 | 126.81378 | 53 ft | 17 kts | 123° |
| 2026-04-22 13:12 | 35.13797 | 126.81505 | 51 ft | 17 kts | 122° |
| 2026-04-22 13:12 | 35.13708 | 126.81529 | 51 ft | 15 kts | 209° |
| 2026-04-22 13:12 | 35.13543 | 126.81413 | 51 ft | 59 kts | 209° |
| 2026-04-22 13:12 | 35.12946 | 126.80997 | 50 ft | 135 kts | 210° |
| 2026-04-22 13:13 | 35.11981 | 126.80315 | 296 ft | 173 kts | 210° |
| 2026-04-22 13:13 | 35.10963 | 126.79561 | 1150 ft | 176 kts | 210° |
| 2026-04-22 13:13 | 35.09779 | 126.78954 | 1706 ft | 194 kts | 187° |
| 2026-04-22 13:13 | 35.08411 | 126.78786 | 2247 ft | 207 kts | 181° |
| 2026-04-22 13:14 | 35.06936 | 126.78580 | 2798 ft | 221 kts | 186° |
| 2026-04-22 13:14 | 35.05366 | 126.78259 | 3259 ft | 242 kts | 187° |
| 2026-04-22 13:14 | 35.03640 | 126.77873 | 3900 ft | 255 kts | 188° |
| 2026-04-22 13:14 | 35.01878 | 126.77477 | 4576 ft | 267 kts | 188° |
| 2026-04-22 13:15 | 35.00009 | 126.77068 | 5278 ft | 277 kts | 188° |
| 2026-04-22 13:15 | 34.98092 | 126.76651 | 6103 ft | 282 kts | 189° |
| 2026-04-22 13:15 | 34.96189 | 126.76234 | 7049 ft | 281 kts | 188° |
| 2026-04-22 13:15 | 34.94265 | 126.75833 | 7984 ft | 281 kts | 189° |
| 2026-04-22 13:16 | 34.92361 | 126.75429 | 8767 ft | 285 kts | 189° |
| 2026-04-22 13:16 | 34.90405 | 126.75017 | 9603 ft | 286 kts | 190° |
| 2026-04-22 13:16 | 34.88447 | 126.74593 | 10407 ft | 289 kts | 191° |
| 2026-04-22 13:16 | 34.86418 | 126.74139 | 10802 ft | 306 kts | 191° |
| 2026-04-22 13:17 | 34.84270 | 126.73662 | 10930 ft | 325 kts | 192° |
| 2026-04-22 13:17 | 34.81961 | 126.73168 | 10938 ft | 341 kts | 192° |
| 2026-04-22 13:17 | 34.79591 | 126.72663 | 10930 ft | 345 kts | 191° |
| 2026-04-22 13:17 | 34.77258 | 126.72169 | 10928 ft | 341 kts | 191° |
| 2026-04-22 13:18 | 34.74915 | 126.71666 | 10930 ft | 337 kts | 191° |
| 2026-04-22 13:18 | 34.72615 | 126.71156 | 10929 ft | 338 kts | 192° |
| 2026-04-22 13:18 | 34.70301 | 126.70634 | 10928 ft | 340 kts | 191° |
| 2026-04-22 13:18 | 34.67942 | 126.70113 | 10931 ft | 340 kts | 192° |
| 2026-04-22 13:19 | 34.65620 | 126.69607 | 10929 ft | 338 kts | 191° |
| 2026-04-22 13:19 | 34.63328 | 126.69101 | 10927 ft | 338 kts | 192° |
| 2026-04-22 13:19 | 34.61003 | 126.68589 | 10933 ft | 338 kts | 191° |
| 2026-04-22 13:19 | 34.58679 | 126.68085 | 10924 ft | 338 kts | 191° |
| 2026-04-22 13:20 | 34.56361 | 126.67597 | 10926 ft | 337 kts | 190° |
| 2026-04-22 13:20 | 34.54040 | 126.67120 | 10928 ft | 339 kts | 191° |
| 2026-04-22 13:20 | 34.28907 | 126.61801 | 10896 ft | 339 kts | 191° |
| 2026-04-22 13:20 | 33.91509 | 126.55835 | 9632 ft | 336 kts | 182° |
| 2026-04-22 13:21 | 33.80025 | 126.55489 | 8166 ft | 334 kts | 189° |
| 2026-04-22 13:21 | 33.77821 | 126.54658 | 7691 ft | 333 kts | 208° |
| 2026-04-22 13:21 | 33.75948 | 126.53056 | 7231 ft | 330 kts | 220° |
| 2026-04-22 13:21 | 33.74231 | 126.51215 | 6753 ft | 328 kts | 223° |
| 2026-04-22 13:22 | 33.72543 | 126.49374 | 6295 ft | 326 kts | 222° |
| 2026-04-22 13:22 | 33.70866 | 126.47593 | 5920 ft | 320 kts | 220° |
| 2026-04-22 13:22 | 33.69224 | 126.45887 | 5550 ft | 316 kts | 220° |
| 2026-04-22 13:22 | 33.68110 | 126.44750 | 5298 ft | 313 kts | 219° |
| 2026-04-22 13:23 | 33.66434 | 126.43051 | 4929 ft | 305 kts | 219° |
| 2026-04-22 13:23 | 33.57132 | 126.33669 | 2977 ft | 302 kts | 216° |
| 2026-04-22 13:23 | 33.45530 | 126.22092 | 3683 ft | 277 kts | 207° |
| 2026-04-22 13:23 | 33.43781 | 126.21378 | 3846 ft | 264 kts | 180° |
| 2026-04-22 13:24 | 33.41880 | 126.21604 | 3872 ft | 263 kts | 158° |
| 2026-04-22 13:24 | 33.40218 | 126.22575 | 3628 ft | 251 kts | 139° |
| 2026-04-22 13:24 | 33.39023 | 126.24046 | 3410 ft | 231 kts | 117° |
| 2026-04-22 13:24 | 33.38386 | 126.25771 | 3191 ft | 215 kts | 101° |
| 2026-04-22 13:25 | 33.38195 | 126.27512 | 2994 ft | 201 kts | 89° |
| 2026-04-22 13:25 | 33.38159 | 126.29120 | 3024 ft | 184 kts | 89° |
| 2026-04-22 13:25 | 33.38278 | 126.30611 | 2834 ft | 174 kts | 63° |
| 2026-04-22 13:25 | 33.39148 | 126.31595 | 2543 ft | 178 kts | 27° |
| 2026-04-22 13:26 | 33.40232 | 126.32153 | 2429 ft | 161 kts | 38° |
| 2026-04-22 13:26 | 33.41038 | 126.32986 | 2206 ft | 148 kts | 49° |
| 2026-04-22 13:26 | 33.41745 | 126.33833 | 1844 ft | 139 kts | 47° |
| 2026-04-22 13:26 | 33.42445 | 126.34580 | 1520 ft | 132 kts | 45° |
| 2026-04-22 13:27 | 33.43098 | 126.35284 | 1359 ft | 119 kts | 48° |
| 2026-04-22 13:27 | 33.43692 | 126.36011 | 1187 ft | 122 kts | 49° |
| 2026-04-22 13:27 | 33.44309 | 126.36718 | 1130 ft | 126 kts | 47° |
| 2026-04-22 13:27 | 33.44983 | 126.37439 | 1083 ft | 131 kts | 51° |
| 2026-04-22 13:28 | 33.45592 | 126.38253 | 996 ft | 130 kts | 54° |
| 2026-04-22 13:28 | 33.46095 | 126.39150 | 954 ft | 130 kts | 68° |
| 2026-04-22 13:28 | 33.46466 | 126.40114 | 836 ft | 129 kts | 60° |
| 2026-04-22 13:28 | 33.46996 | 126.40998 | 783 ft | 131 kts | 59° |
| 2026-04-22 13:29 | 33.47481 | 126.41954 | 809 ft | 135 kts | 62° |
| 2026-04-22 13:29 | 33.47968 | 126.42920 | 792 ft | 136 kts | 61° |
| 2026-04-22 13:29 | 33.48473 | 126.43911 | 672 ft | 141 kts | 61° |
| 2026-04-22 13:29 | 33.48994 | 126.44910 | 463 ft | 139 kts | 62° |
| 2026-04-22 13:30 | 33.49508 | 126.45907 | 298 ft | 140 kts | 62° |
| 2026-04-22 13:30 | 33.50017 | 126.46904 | 100 ft | 140 kts | 63° |
| 2026-04-22 13:30 | 33.50451 | 126.47765 | 84 ft | 88 kts | 58° |